Kermanshah, Iran
Current Conditions -  °F | °C
As of 6:30 PM on Thursday 30 Oct 2014 (Local Time) from OICC Reporting Station
Broken Clouds Broken Clouds  
Wind Chill: 57°   Ceiling: 11000
Heat Index: 57°   Visibility: 6mi
Dew Point: 39°   Wind: 7mph
Humidity: 51%   Direction: 80°E
Pressure: 30.12"   Gusts: NA
Location:  34.38°N, 47.06°E
Report Text: OICC 301530Z 080006KT 9999 FEW040CB SCT045 BKN11014/04 Q1020 A3014 TEMPO TSRA
Loading
Personal Weather Stations






























Interactive Weather Map
Tropical Storm Tracking
New forecast layout! Learn more

10-Day Weather Forecast

Advertisements
Track Severe Weather on mobile